sensor_id;sensor_type;location;lat;lon;timestamp;P1;durP1;ratioP1;P2;durP2;ratioP2
68942;SDS011;60852;52.190;4.422;2023-05-23T00:01:29;12.38;;;12.31;;
68942;SDS011;60852;52.190;4.422;2023-05-23T00:03:57;13.83;;;13.54;;
68942;SDS011;60852;52.190;4.422;2023-05-23T00:06:22;13.85;;;13.63;;
68942;SDS011;60852;52.190;4.422;2023-05-23T00:08:48;13.96;;;13.66;;
68942;SDS011;60852;52.190;4.422;2023-05-23T00:11:14;14.29;;;13.97;;
68942;SDS011;60852;52.190;4.422;2023-05-23T00:13:40;14.24;;;13.58;;
68942;SDS011;60852;52.190;4.422;2023-05-23T00:16:06;13.99;;;13.23;;
68942;SDS011;60852;52.190;4.422;2023-05-23T00:18:35;13.66;;;13.12;;
68942;SDS011;60852;52.190;4.422;2023-05-23T00:21:01;13.53;;;12.87;;
68942;SDS011;60852;52.190;4.422;2023-05-23T00:23:26;12.94;;;12.42;;
68942;SDS011;60852;52.190;4.422;2023-05-23T00:25:54;12.30;;;11.95;;
68942;SDS011;60852;52.190;4.422;2023-05-23T00:28:20;11.81;;;11.39;;
68942;SDS011;60852;52.190;4.422;2023-05-23T00:30:46;11.89;;;11.53;;
68942;SDS011;60852;52.190;4.422;2023-05-23T00:33:15;11.75;;;11.39;;
68942;SDS011;60852;52.190;4.422;2023-05-23T00:35:41;11.03;;;10.55;;
68942;SDS011;60852;52.190;4.422;2023-05-23T00:38:07;12.11;;;11.43;;
68942;SDS011;60852;52.190;4.422;2023-05-23T00:40:33;11.86;;;11.25;;
68942;SDS011;60852;52.190;4.422;2023-05-23T00:42:59;11.13;;;10.55;;
68942;SDS011;60852;52.190;4.422;2023-05-23T00:45:26;10.58;;;10.07;;
68942;SDS011;60852;52.190;4.422;2023-05-23T00:47:51;11.20;;;10.53;;
68942;SDS011;60852;52.190;4.422;2023-05-23T00:50:18;10.88;;;10.26;;
68942;SDS011;60852;52.190;4.422;2023-05-23T00:52:45;10.57;;;10.06;;
68942;SDS011;60852;52.190;4.422;2023-05-23T00:55:13;10.75;;;10.08;;
68942;SDS011;60852;52.190;4.422;2023-05-23T00:57:39;10.47;;;9.88;;
68942;SDS011;60852;52.190;4.422;2023-05-23T01:00:11;10.33;;;9.85;;
68942;SDS011;60852;52.190;4.422;2023-05-23T01:02:41;11.06;;;10.35;;
68942;SDS011;60852;52.190;4.422;2023-05-23T01:05:09;10.82;;;10.32;;
68942;SDS011;60852;52.190;4.422;2023-05-23T01:07:44;10.49;;;10.03;;
68942;SDS011;60852;52.190;4.422;2023-05-23T01:10:13;11.26;;;10.60;;
68942;SDS011;60852;52.190;4.422;2023-05-23T01:15:18;10.74;;;10.06;;
68942;SDS011;60852;52.190;4.422;2023-05-23T01:20:15;10.38;;;9.83;;
68942;SDS011;60852;52.190;4.422;2023-05-23T01:22:59;10.73;;;10.09;;
68942;SDS011;60852;52.190;4.422;2023-05-23T01:28:31;10.84;;;10.22;;
68942;SDS011;60852;52.190;4.422;2023-05-23T01:31:05;9.76;;;9.36;;
68942;SDS011;60852;52.190;4.422;2023-05-23T01:33:34;11.37;;;10.70;;
68942;SDS011;60852;52.190;4.422;2023-05-23T01:36:02;11.70;;;10.86;;
68942;SDS011;60852;52.190;4.422;2023-05-23T01:38:28;11.37;;;10.54;;
68942;SDS011;60852;52.190;4.422;2023-05-23T01:40:54;11.14;;;10.45;;
68942;SDS011;60852;52.190;4.422;2023-05-23T01:43:20;11.69;;;11.02;;
68942;SDS011;60852;52.190;4.422;2023-05-23T01:45:46;11.98;;;11.12;;
68942;SDS011;60852;52.190;4.422;2023-05-23T01:48:13;11.03;;;10.34;;
68942;SDS011;60852;52.190;4.422;2023-05-23T01:50:41;10.73;;;10.01;;
68942;SDS011;60852;52.190;4.422;2023-05-23T01:53:09;11.24;;;10.44;;
68942;SDS011;60852;52.190;4.422;2023-05-23T01:55:37;10.67;;;10.01;;
68942;SDS011;60852;52.190;4.422;2023-05-23T01:58:05;10.87;;;10.16;;
68942;SDS011;60852;52.190;4.422;2023-05-23T02:00:31;10.82;;;9.94;;
68942;SDS011;60852;52.190;4.422;2023-05-23T02:02:57;10.88;;;10.05;;
68942;SDS011;60852;52.190;4.422;2023-05-23T02:05:23;10.21;;;9.62;;
68942;SDS011;60852;52.190;4.422;2023-05-23T02:07:49;10.25;;;9.63;;
68942;SDS011;60852;52.190;4.422;2023-05-23T02:10:14;10.17;;;9.48;;
68942;SDS011;60852;52.190;4.422;2023-05-23T02:12:40;10.04;;;9.47;;
68942;SDS011;60852;52.190;4.422;2023-05-23T02:15:05;9.80;;;9.22;;
68942;SDS011;60852;52.190;4.422;2023-05-23T02:17:31;10.00;;;9.41;;
68942;SDS011;60852;52.190;4.422;2023-05-23T02:19:57;10.00;;;9.37;;
68942;SDS011;60852;52.190;4.422;2023-05-23T02:22:22;9.96;;;9.25;;
68942;SDS011;60852;52.190;4.422;2023-05-23T02:24:49;9.82;;;9.00;;
68942;SDS011;60852;52.190;4.422;2023-05-23T02:27:14;10.23;;;9.03;;
68942;SDS011;60852;52.190;4.422;2023-05-23T02:29:40;10.49;;;9.04;;
68942;SDS011;60852;52.190;4.422;2023-05-23T02:32:05;9.18;;;8.00;;
68942;SDS011;60852;52.190;4.422;2023-05-23T02:34:31;9.30;;;8.35;;
68942;SDS011;60852;52.190;4.422;2023-05-23T02:36:56;8.94;;;8.05;;
68942;SDS011;60852;52.190;4.422;2023-05-23T02:39:22;9.45;;;8.28;;
68942;SDS011;60852;52.190;4.422;2023-05-23T02:41:47;9.84;;;8.81;;
68942;SDS011;60852;52.190;4.422;2023-05-23T02:44:13;10.58;;;9.25;;
68942;SDS011;60852;52.190;4.422;2023-05-23T02:46:38;10.93;;;9.37;;
68942;SDS011;60852;52.190;4.422;2023-05-23T02:49:04;9.56;;;8.50;;
68942;SDS011;60852;52.190;4.422;2023-05-23T02:51:29;9.18;;;8.43;;
68942;SDS011;60852;52.190;4.422;2023-05-23T02:53:56;8.28;;;7.69;;
68942;SDS011;60852;52.190;4.422;2023-05-23T02:56:22;7.97;;;7.47;;
68942;SDS011;60852;52.190;4.422;2023-05-23T02:58:47;8.57;;;7.97;;
68942;SDS011;60852;52.190;4.422;2023-05-23T03:01:13;8.14;;;7.56;;
68942;SDS011;60852;52.190;4.422;2023-05-23T03:03:38;6.99;;;6.62;;
68942;SDS011;60852;52.190;4.422;2023-05-23T03:06:05;7.08;;;6.83;;
68942;SDS011;60852;52.190;4.422;2023-05-23T03:08:31;7.15;;;6.74;;
68942;SDS011;60852;52.190;4.422;2023-05-23T03:10:57;7.25;;;6.74;;
68942;SDS011;60852;52.190;4.422;2023-05-23T03:13:22;6.66;;;6.34;;
68942;SDS011;60852;52.190;4.422;2023-05-23T03:15:48;6.93;;;6.55;;
68942;SDS011;60852;52.190;4.422;2023-05-23T03:18:13;7.74;;;7.21;;
68942;SDS011;60852;52.190;4.422;2023-05-23T03:20:39;7.70;;;7.28;;
68942;SDS011;60852;52.190;4.422;2023-05-23T03:23:04;7.29;;;6.91;;
68942;SDS011;60852;52.190;4.422;2023-05-23T03:25:30;7.91;;;7.42;;
68942;SDS011;60852;52.190;4.422;2023-05-23T03:27:55;8.06;;;7.52;;
68942;SDS011;60852;52.190;4.422;2023-05-23T03:30:20;7.82;;;7.41;;
68942;SDS011;60852;52.190;4.422;2023-05-23T03:32:46;7.34;;;7.06;;
68942;SDS011;60852;52.190;4.422;2023-05-23T03:35:12;7.36;;;7.06;;
68942;SDS011;60852;52.190;4.422;2023-05-23T03:37:37;7.41;;;7.12;;
68942;SDS011;60852;52.190;4.422;2023-05-23T03:40:03;7.59;;;7.32;;
68942;SDS011;60852;52.190;4.422;2023-05-23T03:42:29;7.77;;;7.37;;
68942;SDS011;60852;52.190;4.422;2023-05-23T03:44:54;8.00;;;7.55;;
68942;SDS011;60852;52.190;4.422;2023-05-23T03:47:20;8.61;;;8.24;;
68942;SDS011;60852;52.190;4.422;2023-05-23T03:49:45;9.05;;;8.72;;
68942;SDS011;60852;52.190;4.422;2023-05-23T03:52:11;9.12;;;8.83;;
68942;SDS011;60852;52.190;4.422;2023-05-23T03:54:36;9.81;;;9.47;;
68942;SDS011;60852;52.190;4.422;2023-05-23T03:57:02;9.85;;;9.56;;
68942;SDS011;60852;52.190;4.422;2023-05-23T03:59:28;9.74;;;9.55;;
68942;SDS011;60852;52.190;4.422;2023-05-23T04:01:53;9.44;;;9.28;;
68942;SDS011;60852;52.190;4.422;2023-05-23T04:04:20;9.26;;;9.15;;
68942;SDS011;60852;52.190;4.422;2023-05-23T04:06:45;9.82;;;9.72;;
68942;SDS011;60852;52.190;4.422;2023-05-23T04:09:11;10.47;;;10.28;;
68942;SDS011;60852;52.190;4.422;2023-05-23T04:11:38;10.51;;;10.27;;
68942;SDS011;60852;52.190;4.422;2023-05-23T04:14:03;10.85;;;10.61;;
68942;SDS011;60852;52.190;4.422;2023-05-23T04:16:29;11.03;;;10.84;;
68942;SDS011;60852;52.190;4.422;2023-05-23T04:18:57;10.84;;;10.75;;
68942;SDS011;60852;52.190;4.422;2023-05-23T04:21:23;10.94;;;10.70;;
68942;SDS011;60852;52.190;4.422;2023-05-23T04:23:49;10.62;;;10.47;;
68942;SDS011;60852;52.190;4.422;2023-05-23T04:26:14;10.42;;;10.37;;
68942;SDS011;60852;52.190;4.422;2023-05-23T04:28:40;10.67;;;10.53;;
68942;SDS011;60852;52.190;4.422;2023-05-23T04:31:07;10.98;;;10.78;;
68942;SDS011;60852;52.190;4.422;2023-05-23T04:33:33;11.38;;;11.18;;
68942;SDS011;60852;52.190;4.422;2023-05-23T04:35:58;11.84;;;11.51;;
68942;SDS011;60852;52.190;4.422;2023-05-23T04:38:24;10.85;;;10.59;;
68942;SDS011;60852;52.190;4.422;2023-05-23T04:40:52;11.56;;;11.27;;
68942;SDS011;60852;52.190;4.422;2023-05-23T04:43:18;10.72;;;10.57;;
68942;SDS011;60852;52.190;4.422;2023-05-23T04:45:44;11.17;;;10.89;;
68942;SDS011;60852;52.190;4.422;2023-05-23T04:48:14;10.64;;;10.51;;
68942;SDS011;60852;52.190;4.422;2023-05-23T04:50:41;11.02;;;10.77;;
68942;SDS011;60852;52.190;4.422;2023-05-23T04:53:07;10.35;;;10.08;;
68942;SDS011;60852;52.190;4.422;2023-05-23T04:55:32;9.74;;;9.60;;
68942;SDS011;60852;52.190;4.422;2023-05-23T04:57:58;10.20;;;10.03;;
68942;SDS011;60852;52.190;4.422;2023-05-23T05:00:25;10.30;;;10.08;;
68942;SDS011;60852;52.190;4.422;2023-05-23T05:02:50;10.07;;;9.92;;
68942;SDS011;60852;52.190;4.422;2023-05-23T05:05:16;10.00;;;9.83;;
68942;SDS011;60852;52.190;4.422;2023-05-23T05:07:42;10.41;;;10.18;;
68942;SDS011;60852;52.190;4.422;2023-05-23T05:10:08;10.30;;;9.97;;
68942;SDS011;60852;52.190;4.422;2023-05-23T05:12:42;10.12;;;9.89;;
68942;SDS011;60852;52.190;4.422;2023-05-23T05:15:08;10.04;;;9.60;;
68942;SDS011;60852;52.190;4.422;2023-05-23T05:17:34;9.95;;;9.73;;
68942;SDS011;60852;52.190;4.422;2023-05-23T05:20:01;9.84;;;9.64;;
68942;SDS011;60852;52.190;4.422;2023-05-23T05:22:32;8.38;;;8.27;;
68942;SDS011;60852;52.190;4.422;2023-05-23T05:24:59;8.47;;;8.21;;
68942;SDS011;60852;52.190;4.422;2023-05-23T05:27:25;8.24;;;7.89;;
68942;SDS011;60852;52.190;4.422;2023-05-23T05:29:51;7.51;;;7.20;;
68942;SDS011;60852;52.190;4.422;2023-05-23T05:32:17;7.69;;;7.33;;
68942;SDS011;60852;52.190;4.422;2023-05-23T05:34:43;7.09;;;6.82;;
68942;SDS011;60852;52.190;4.422;2023-05-23T05:37:08;6.61;;;6.39;;
68942;SDS011;60852;52.190;4.422;2023-05-23T05:39:34;6.78;;;6.61;;
68942;SDS011;60852;52.190;4.422;2023-05-23T05:41:59;5.56;;;5.39;;
68942;SDS011;60852;52.190;4.422;2023-05-23T05:44:27;5.15;;;5.02;;
68942;SDS011;60852;52.190;4.422;2023-05-23T05:46:53;4.92;;;4.75;;
68942;SDS011;60852;52.190;4.422;2023-05-23T05:49:19;4.96;;;4.78;;
68942;SDS011;60852;52.190;4.422;2023-05-23T05:51:44;4.64;;;4.48;;
68942;SDS011;60852;52.190;4.422;2023-05-23T05:54:10;4.45;;;4.30;;
68942;SDS011;60852;52.190;4.422;2023-05-23T05:56:35;4.64;;;4.43;;
68942;SDS011;60852;52.190;4.422;2023-05-23T05:59:01;4.21;;;4.00;;
68942;SDS011;60852;52.190;4.422;2023-05-23T06:01:26;4.07;;;3.82;;
68942;SDS011;60852;52.190;4.422;2023-05-23T06:03:52;4.55;;;4.19;;
68942;SDS011;60852;52.190;4.422;2023-05-23T06:06:17;4.54;;;3.98;;
68942;SDS011;60852;52.190;4.422;2023-05-23T06:08:43;5.35;;;4.57;;
68942;SDS011;60852;52.190;4.422;2023-05-23T06:11:09;5.00;;;4.13;;
68942;SDS011;60852;52.190;4.422;2023-05-23T06:13:36;5.24;;;4.25;;
68942;SDS011;60852;52.190;4.422;2023-05-23T06:16:01;4.91;;;3.96;;
68942;SDS011;60852;52.190;4.422;2023-05-23T06:18:27;5.37;;;4.51;;
68942;SDS011;60852;52.190;4.422;2023-05-23T06:20:52;5.57;;;4.58;;
68942;SDS011;60852;52.190;4.422;2023-05-23T06:23:17;6.24;;;4.90;;
68942;SDS011;60852;52.190;4.422;2023-05-23T06:25:43;7.47;;;5.65;;
68942;SDS011;60852;52.190;4.422;2023-05-23T06:28:09;7.76;;;5.71;;
68942;SDS011;60852;52.190;4.422;2023-05-23T06:30:34;8.11;;;5.89;;
68942;SDS011;60852;52.190;4.422;2023-05-23T06:33:02;8.71;;;6.23;;
68942;SDS011;60852;52.190;4.422;2023-05-23T06:35:27;8.91;;;6.30;;
68942;SDS011;60852;52.190;4.422;2023-05-23T06:37:53;10.18;;;7.11;;
68942;SDS011;60852;52.190;4.422;2023-05-23T06:40:18;10.32;;;7.16;;
68942;SDS011;60852;52.190;4.422;2023-05-23T06:42:44;11.26;;;7.65;;
68942;SDS011;60852;52.190;4.422;2023-05-23T06:45:09;10.97;;;7.45;;
68942;SDS011;60852;52.190;4.422;2023-05-23T06:47:35;10.74;;;7.38;;
68942;SDS011;60852;52.190;4.422;2023-05-23T06:50:01;10.58;;;7.36;;
68942;SDS011;60852;52.190;4.422;2023-05-23T06:52:27;10.43;;;7.38;;
68942;SDS011;60852;52.190;4.422;2023-05-23T06:54:52;9.20;;;6.49;;
68942;SDS011;60852;52.190;4.422;2023-05-23T06:57:18;10.26;;;7.11;;
68942;SDS011;60852;52.190;4.422;2023-05-23T06:59:43;9.95;;;6.88;;
68942;SDS011;60852;52.190;4.422;2023-05-23T07:02:08;9.41;;;6.57;;
68942;SDS011;60852;52.190;4.422;2023-05-23T07:04:34;8.75;;;6.35;;
68942;SDS011;60852;52.190;4.422;2023-05-23T07:06:59;9.72;;;7.00;;
68942;SDS011;60852;52.190;4.422;2023-05-23T07:09:25;9.88;;;6.98;;
68942;SDS011;60852;52.190;4.422;2023-05-23T07:11:50;9.83;;;6.80;;
68942;SDS011;60852;52.190;4.422;2023-05-23T07:14:16;9.65;;;6.70;;
68942;SDS011;60852;52.190;4.422;2023-05-23T07:16:41;9.31;;;6.61;;
68942;SDS011;60852;52.190;4.422;2023-05-23T07:19:07;10.72;;;7.41;;
68942;SDS011;60852;52.190;4.422;2023-05-23T07:21:32;9.98;;;6.89;;
68942;SDS011;60852;52.190;4.422;2023-05-23T07:23:58;10.63;;;7.30;;
68942;SDS011;60852;52.190;4.422;2023-05-23T07:26:23;10.47;;;7.18;;
68942;SDS011;60852;52.190;4.422;2023-05-23T07:28:48;10.25;;;7.12;;
68942;SDS011;60852;52.190;4.422;2023-05-23T07:31:15;9.76;;;6.89;;
68942;SDS011;60852;52.190;4.422;2023-05-23T07:33:41;10.14;;;7.05;;
68942;SDS011;60852;52.190;4.422;2023-05-23T07:36:06;11.02;;;7.55;;
68942;SDS011;60852;52.190;4.422;2023-05-23T07:38:32;10.86;;;7.55;;
68942;SDS011;60852;52.190;4.422;2023-05-23T07:40:57;11.95;;;8.28;;
68942;SDS011;60852;52.190;4.422;2023-05-23T07:43:23;12.04;;;8.24;;
68942;SDS011;60852;52.190;4.422;2023-05-23T07:45:48;11.88;;;7.99;;
68942;SDS011;60852;52.190;4.422;2023-05-23T07:48:14;11.65;;;8.04;;
68942;SDS011;60852;52.190;4.422;2023-05-23T07:50:39;11.04;;;7.69;;
68942;SDS011;60852;52.190;4.422;2023-05-23T07:53:05;10.29;;;7.17;;
68942;SDS011;60852;52.190;4.422;2023-05-23T07:55:30;11.90;;;8.29;;
68942;SDS011;60852;52.190;4.422;2023-05-23T07:57:56;12.15;;;8.28;;
68942;SDS011;60852;52.190;4.422;2023-05-23T08:00:21;11.83;;;8.10;;
68942;SDS011;60852;52.190;4.422;2023-05-23T08:02:47;10.81;;;7.39;;
68942;SDS011;60852;52.190;4.422;2023-05-23T08:05:12;9.95;;;7.16;;
68942;SDS011;60852;52.190;4.422;2023-05-23T08:07:38;9.60;;;7.06;;
68942;SDS011;60852;52.190;4.422;2023-05-23T08:10:03;10.58;;;7.59;;
68942;SDS011;60852;52.190;4.422;2023-05-23T08:12:29;11.88;;;8.34;;
68942;SDS011;60852;52.190;4.422;2023-05-23T08:14:55;10.92;;;7.80;;
68942;SDS011;60852;52.190;4.422;2023-05-23T08:17:21;10.44;;;7.38;;
68942;SDS011;60852;52.190;4.422;2023-05-23T08:19:46;10.68;;;7.66;;
68942;SDS011;60852;52.190;4.422;2023-05-23T08:22:11;10.98;;;7.73;;
68942;SDS011;60852;52.190;4.422;2023-05-23T08:24:37;10.53;;;7.51;;
68942;SDS011;60852;52.190;4.422;2023-05-23T08:27:02;10.70;;;7.64;;
68942;SDS011;60852;52.190;4.422;2023-05-23T08:29:28;10.77;;;7.73;;
68942;SDS011;60852;52.190;4.422;2023-05-23T08:31:54;10.26;;;7.38;;
68942;SDS011;60852;52.190;4.422;2023-05-23T08:34:19;10.08;;;7.13;;
68942;SDS011;60852;52.190;4.422;2023-05-23T08:36:45;10.02;;;7.10;;
68942;SDS011;60852;52.190;4.422;2023-05-23T08:39:10;10.05;;;7.10;;
68942;SDS011;60852;52.190;4.422;2023-05-23T08:41:36;10.32;;;7.37;;
68942;SDS011;60852;52.190;4.422;2023-05-23T08:44:01;9.54;;;6.84;;
68942;SDS011;60852;52.190;4.422;2023-05-23T08:46:27;9.48;;;6.85;;
68942;SDS011;60852;52.190;4.422;2023-05-23T08:48:53;9.96;;;7.13;;
68942;SDS011;60852;52.190;4.422;2023-05-23T08:51:20;9.49;;;7.01;;
68942;SDS011;60852;52.190;4.422;2023-05-23T08:53:47;8.70;;;6.47;;
68942;SDS011;60852;52.190;4.422;2023-05-23T08:56:14;8.93;;;6.58;;
68942;SDS011;60852;52.190;4.422;2023-05-23T08:58:41;9.48;;;6.92;;
68942;SDS011;60852;52.190;4.422;2023-05-23T09:01:07;9.54;;;6.97;;
68942;SDS011;60852;52.190;4.422;2023-05-23T09:03:36;9.99;;;7.22;;
68942;SDS011;60852;52.190;4.422;2023-05-23T09:06:02;10.14;;;7.15;;
68942;SDS011;60852;52.190;4.422;2023-05-23T09:08:30;9.74;;;6.90;;
68942;SDS011;60852;52.190;4.422;2023-05-23T09:10:56;9.41;;;6.72;;
68942;SDS011;60852;52.190;4.422;2023-05-23T09:13:22;9.38;;;6.80;;
68942;SDS011;60852;52.190;4.422;2023-05-23T09:16:03;8.62;;;6.37;;
68942;SDS011;60852;52.190;4.422;2023-05-23T09:18:36;8.26;;;6.16;;
68942;SDS011;60852;52.190;4.422;2023-05-23T09:21:06;9.64;;;6.92;;
68942;SDS011;60852;52.190;4.422;2023-05-23T09:23:37;9.29;;;6.64;;
68942;SDS011;60852;52.190;4.422;2023-05-23T09:26:08;8.54;;;6.23;;
68942;SDS011;60852;52.190;4.422;2023-05-23T09:28:35;9.44;;;6.96;;
68942;SDS011;60852;52.190;4.422;2023-05-23T09:31:06;8.98;;;6.51;;
68942;SDS011;60852;52.190;4.422;2023-05-23T09:33:41;8.95;;;6.57;;
68942;SDS011;60852;52.190;4.422;2023-05-23T09:36:13;9.15;;;6.61;;
68942;SDS011;60852;52.190;4.422;2023-05-23T09:38:40;9.49;;;6.68;;
68942;SDS011;60852;52.190;4.422;2023-05-23T09:41:06;8.19;;;5.77;;
68942;SDS011;60852;52.190;4.422;2023-05-23T09:43:33;9.09;;;6.36;;
68942;SDS011;60852;52.190;4.422;2023-05-23T09:46:11;9.18;;;6.44;;
68942;SDS011;60852;52.190;4.422;2023-05-23T09:48:37;10.24;;;7.17;;
68942;SDS011;60852;52.190;4.422;2023-05-23T09:51:08;10.32;;;7.37;;
68942;SDS011;60852;52.190;4.422;2023-05-23T09:53:34;11.51;;;7.96;;
68942;SDS011;60852;52.190;4.422;2023-05-23T09:56:03;10.51;;;7.27;;
68942;SDS011;60852;52.190;4.422;2023-05-23T09:58:30;10.83;;;7.46;;
68942;SDS011;60852;52.190;4.422;2023-05-23T10:00:59;10.85;;;7.47;;
68942;SDS011;60852;52.190;4.422;2023-05-23T10:03:32;11.21;;;7.66;;
68942;SDS011;60852;52.190;4.422;2023-05-23T10:06:07;10.07;;;7.13;;
68942;SDS011;60852;52.190;4.422;2023-05-23T10:08:39;9.76;;;7.00;;
68942;SDS011;60852;52.190;4.422;2023-05-23T10:13:44;9.37;;;6.62;;
68942;SDS011;60852;52.190;4.422;2023-05-23T10:16:26;8.96;;;6.26;;
68942;SDS011;60852;52.190;4.422;2023-05-23T10:18:59;8.46;;;6.08;;
68942;SDS011;60852;52.190;4.422;2023-05-23T10:21:34;9.92;;;6.90;;
68942;SDS011;60852;52.190;4.422;2023-05-23T10:24:08;9.44;;;6.51;;
68942;SDS011;60852;52.190;4.422;2023-05-23T10:26:36;8.81;;;6.20;;
68942;SDS011;60852;52.190;4.422;2023-05-23T10:29:02;8.16;;;5.91;;
68942;SDS011;60852;52.190;4.422;2023-05-23T10:31:29;7.88;;;5.69;;
68942;SDS011;60852;52.190;4.422;2023-05-23T10:34:01;7.83;;;5.60;;
68942;SDS011;60852;52.190;4.422;2023-05-23T10:36:54;8.60;;;6.16;;
68942;SDS011;60852;52.190;4.422;2023-05-23T10:42:00;8.25;;;5.82;;
68942;SDS011;60852;52.190;4.422;2023-05-23T10:44:32;7.81;;;5.62;;
68942;SDS011;60852;52.190;4.422;2023-05-23T10:46:58;8.50;;;5.94;;
68942;SDS011;60852;52.190;4.422;2023-05-23T10:49:50;9.64;;;6.63;;
68942;SDS011;60852;52.190;4.422;2023-05-23T10:52:15;8.08;;;5.66;;
68942;SDS011;60852;52.190;4.422;2023-05-23T10:54:48;9.89;;;7.01;;
68942;SDS011;60852;52.190;4.422;2023-05-23T10:57:16;8.99;;;6.27;;
68942;SDS011;60852;52.190;4.422;2023-05-23T10:59:44;10.69;;;7.25;;
68942;SDS011;60852;52.190;4.422;2023-05-23T11:02:15;9.92;;;6.70;;
68942;SDS011;60852;52.190;4.422;2023-05-23T11:04:42;10.24;;;7.03;;
68942;SDS011;60852;52.190;4.422;2023-05-23T11:07:27;10.69;;;7.22;;
68942;SDS011;60852;52.190;4.422;2023-05-23T11:10:07;10.58;;;7.21;;
68942;SDS011;60852;52.190;4.422;2023-05-23T11:12:36;9.96;;;6.94;;
68942;SDS011;60852;52.190;4.422;2023-05-23T11:15:17;9.59;;;6.73;;
68942;SDS011;60852;52.190;4.422;2023-05-23T11:17:57;8.31;;;6.06;;
68942;SDS011;60852;52.190;4.422;2023-05-23T11:20:23;8.20;;;5.99;;
68942;SDS011;60852;52.190;4.422;2023-05-23T11:23:01;8.54;;;6.20;;
68942;SDS011;60852;52.190;4.422;2023-05-23T11:28:13;8.91;;;6.24;;
68942;SDS011;60852;52.190;4.422;2023-05-23T11:30:39;9.28;;;6.44;;
68942;SDS011;60852;52.190;4.422;2023-05-23T11:33:08;9.70;;;6.61;;
68942;SDS011;60852;52.190;4.422;2023-05-23T11:35:38;11.21;;;7.52;;
68942;SDS011;60852;52.190;4.422;2023-05-23T11:38:08;10.20;;;6.84;;
68942;SDS011;60852;52.190;4.422;2023-05-23T11:40:41;9.52;;;6.52;;
68942;SDS011;60852;52.190;4.422;2023-05-23T11:43:15;10.07;;;6.87;;
68942;SDS011;60852;52.190;4.422;2023-05-23T11:45:42;10.96;;;7.31;;
68942;SDS011;60852;52.190;4.422;2023-05-23T11:48:08;11.35;;;7.51;;
68942;SDS011;60852;52.190;4.422;2023-05-23T11:50:50;11.04;;;7.31;;
68942;SDS011;60852;52.190;4.422;2023-05-23T11:53:21;9.97;;;6.54;;
68942;SDS011;60852;52.190;4.422;2023-05-23T11:58:17;9.87;;;6.62;;
68942;SDS011;60852;52.190;4.422;2023-05-23T12:00:43;9.28;;;6.26;;
68942;SDS011;60852;52.190;4.422;2023-05-23T12:03:09;9.48;;;6.42;;
68942;SDS011;60852;52.190;4.422;2023-05-23T12:05:35;10.18;;;6.87;;
68942;SDS011;60852;52.190;4.422;2023-05-23T12:08:01;8.23;;;5.53;;
68942;SDS011;60852;52.190;4.422;2023-05-23T12:10:26;8.67;;;5.88;;
68942;SDS011;60852;52.190;4.422;2023-05-23T12:12:52;8.63;;;5.78;;
68942;SDS011;60852;52.190;4.422;2023-05-23T12:15:18;9.17;;;6.21;;
68942;SDS011;60852;52.190;4.422;2023-05-23T12:17:52;8.66;;;5.90;;
68942;SDS011;60852;52.190;4.422;2023-05-23T12:20:19;9.16;;;6.15;;
68942;SDS011;60852;52.190;4.422;2023-05-23T12:22:45;8.54;;;5.68;;
68942;SDS011;60852;52.190;4.422;2023-05-23T12:25:11;8.25;;;5.55;;
68942;SDS011;60852;52.190;4.422;2023-05-23T12:27:38;8.61;;;5.83;;
68942;SDS011;60852;52.190;4.422;2023-05-23T12:30:08;7.84;;;5.39;;
68942;SDS011;60852;52.190;4.422;2023-05-23T12:32:38;9.05;;;6.08;;
68942;SDS011;60852;52.190;4.422;2023-05-23T12:35:06;9.51;;;6.36;;
68942;SDS011;60852;52.190;4.422;2023-05-23T12:37:40;8.52;;;5.72;;
68942;SDS011;60852;52.190;4.422;2023-05-23T12:40:13;7.84;;;5.49;;
68942;SDS011;60852;52.190;4.422;2023-05-23T12:42:50;8.30;;;5.81;;
68942;SDS011;60852;52.190;4.422;2023-05-23T12:45:17;8.75;;;6.03;;
68942;SDS011;60852;52.190;4.422;2023-05-23T12:47:43;8.64;;;5.94;;
68942;SDS011;60852;52.190;4.422;2023-05-23T12:50:09;9.14;;;6.17;;
68942;SDS011;60852;52.190;4.422;2023-05-23T12:52:35;8.26;;;5.57;;
68942;SDS011;60852;52.190;4.422;2023-05-23T12:55:01;8.59;;;5.67;;
68942;SDS011;60852;52.190;4.422;2023-05-23T12:57:27;8.24;;;5.59;;
68942;SDS011;60852;52.190;4.422;2023-05-23T12:59:52;7.92;;;5.51;;
68942;SDS011;60852;52.190;4.422;2023-05-23T13:02:18;8.94;;;6.07;;
68942;SDS011;60852;52.190;4.422;2023-05-23T13:04:43;9.34;;;6.33;;
68942;SDS011;60852;52.190;4.422;2023-05-23T13:07:09;7.51;;;5.17;;
68942;SDS011;60852;52.190;4.422;2023-05-23T13:09:34;8.52;;;5.82;;
68942;SDS011;60852;52.190;4.422;2023-05-23T13:12:00;9.42;;;6.33;;
68942;SDS011;60852;52.190;4.422;2023-05-23T13:14:25;8.31;;;5.61;;
68942;SDS011;60852;52.190;4.422;2023-05-23T13:16:50;8.14;;;5.54;;
68942;SDS011;60852;52.190;4.422;2023-05-23T13:19:16;7.92;;;5.28;;
68942;SDS011;60852;52.190;4.422;2023-05-23T13:21:42;7.51;;;5.08;;
68942;SDS011;60852;52.190;4.422;2023-05-23T13:24:07;8.29;;;5.56;;
68942;SDS011;60852;52.190;4.422;2023-05-23T13:26:33;8.05;;;5.46;;
68942;SDS011;60852;52.190;4.422;2023-05-23T13:28:59;8.26;;;5.70;;
68942;SDS011;60852;52.190;4.422;2023-05-23T13:31:24;8.12;;;5.60;;
68942;SDS011;60852;52.190;4.422;2023-05-23T13:33:51;7.93;;;5.56;;
68942;SDS011;60852;52.190;4.422;2023-05-23T13:36:16;8.01;;;5.58;;
68942;SDS011;60852;52.190;4.422;2023-05-23T13:38:42;8.88;;;5.97;;
68942;SDS011;60852;52.190;4.422;2023-05-23T13:41:07;8.84;;;5.88;;
68942;SDS011;60852;52.190;4.422;2023-05-23T13:43:33;7.90;;;5.26;;
68942;SDS011;60852;52.190;4.422;2023-05-23T13:45:58;7.64;;;5.17;;
68942;SDS011;60852;52.190;4.422;2023-05-23T13:48:26;7.89;;;5.50;;
68942;SDS011;60852;52.190;4.422;2023-05-23T13:50:51;7.71;;;5.36;;
68942;SDS011;60852;52.190;4.422;2023-05-23T13:53:16;7.91;;;5.51;;
68942;SDS011;60852;52.190;4.422;2023-05-23T13:55:42;7.79;;;5.41;;
68942;SDS011;60852;52.190;4.422;2023-05-23T13:58:09;7.32;;;5.06;;
68942;SDS011;60852;52.190;4.422;2023-05-23T14:00:35;7.67;;;5.27;;
68942;SDS011;60852;52.190;4.422;2023-05-23T14:03:01;7.74;;;5.35;;
68942;SDS011;60852;52.190;4.422;2023-05-23T14:05:27;7.85;;;5.42;;
68942;SDS011;60852;52.190;4.422;2023-05-23T14:07:52;8.14;;;5.59;;
68942;SDS011;60852;52.190;4.422;2023-05-23T14:10:18;8.25;;;5.65;;
68942;SDS011;60852;52.190;4.422;2023-05-23T14:12:43;8.06;;;5.55;;
68942;SDS011;60852;52.190;4.422;2023-05-23T14:15:09;7.38;;;5.17;;
68942;SDS011;60852;52.190;4.422;2023-05-23T14:17:35;7.52;;;5.24;;
68942;SDS011;60852;52.190;4.422;2023-05-23T14:20:01;7.48;;;5.09;;
68942;SDS011;60852;52.190;4.422;2023-05-23T14:22:27;7.79;;;5.28;;
68942;SDS011;60852;52.190;4.422;2023-05-23T14:24:52;8.20;;;5.50;;
68942;SDS011;60852;52.190;4.422;2023-05-23T14:27:18;7.58;;;5.14;;
68942;SDS011;60852;52.190;4.422;2023-05-23T14:29:43;8.27;;;5.66;;
68942;SDS011;60852;52.190;4.422;2023-05-23T14:32:11;7.05;;;4.98;;
68942;SDS011;60852;52.190;4.422;2023-05-23T14:34:36;6.82;;;4.87;;
68942;SDS011;60852;52.190;4.422;2023-05-23T14:37:02;6.56;;;4.70;;
68942;SDS011;60852;52.190;4.422;2023-05-23T14:39:27;6.62;;;4.71;;
68942;SDS011;60852;52.190;4.422;2023-05-23T14:41:53;6.24;;;4.46;;
68942;SDS011;60852;52.190;4.422;2023-05-23T14:44:19;7.43;;;5.23;;
68942;SDS011;60852;52.190;4.422;2023-05-23T14:46:45;7.51;;;5.25;;
68942;SDS011;60852;52.190;4.422;2023-05-23T14:49:17;7.70;;;5.40;;
68942;SDS011;60852;52.190;4.422;2023-05-23T14:51:42;7.73;;;5.40;;
68942;SDS011;60852;52.190;4.422;2023-05-23T14:54:08;7.78;;;5.43;;
68942;SDS011;60852;52.190;4.422;2023-05-23T14:56:34;9.08;;;6.25;;
68942;SDS011;60852;52.190;4.422;2023-05-23T14:59:02;7.71;;;5.35;;